sensor_id;sensor_type;location;lat;lon;timestamp;pressure;altitude;pressure_sealevel;temperature;humidity
6134;BME280;3098;42.678;23.364;2022-08-18T00:02:02;94775.56;;;20.95;88.54
6134;BME280;3098;42.678;23.364;2022-08-18T00:04:31;94770.09;;;20.81;89.10
6134;BME280;3098;42.678;23.364;2022-08-18T00:07:00;94763.06;;;20.66;88.62
6134;BME280;3098;42.678;23.364;2022-08-18T00:09:27;94775.34;;;20.63;88.97
6134;BME280;3098;42.678;23.364;2022-08-18T00:11:55;94748.69;;;20.48;89.90
6134;BME280;3098;42.678;23.364;2022-08-18T00:14:22;94773.19;;;20.87;89.99
6134;BME280;3098;42.678;23.364;2022-08-18T00:16:52;94770.91;;;20.89;89.58
6134;BME280;3098;42.678;23.364;2022-08-18T00:19:19;94777.50;;;20.98;89.63
6134;BME280;3098;42.678;23.364;2022-08-18T00:21:46;94763.59;;;20.93;89.05
6134;BME280;3098;42.678;23.364;2022-08-18T00:24:13;94770.31;;;20.58;89.22
6134;BME280;3098;42.678;23.364;2022-08-18T00:26:40;94749.38;;;20.41;89.74
6134;BME280;3098;42.678;23.364;2022-08-18T00:29:07;94710.72;;;20.20;89.75
6134;BME280;3098;42.678;23.364;2022-08-18T00:31:35;94772.31;;;20.69;89.94
6134;BME280;3098;42.678;23.364;2022-08-18T00:34:03;94768.41;;;20.59;90.09
6134;BME280;3098;42.678;23.364;2022-08-18T00:36:32;94762.19;;;20.51;90.33
6134;BME280;3098;42.678;23.364;2022-08-18T00:38:59;94771.47;;;20.61;90.42
6134;BME280;3098;42.678;23.364;2022-08-18T00:41:26;94774.41;;;20.42;90.26
6134;BME280;3098;42.678;23.364;2022-08-18T00:43:53;94776.09;;;20.57;90.11
6134;BME280;3098;42.678;23.364;2022-08-18T00:46:27;94771.88;;;20.59;89.92
6134;BME280;3098;42.678;23.364;2022-08-18T00:48:55;94770.63;;;20.50;90.29
6134;BME280;3098;42.678;23.364;2022-08-18T00:51:27;94782.09;;;20.40;90.71
6134;BME280;3098;42.678;23.364;2022-08-18T00:53:59;94772.28;;;20.21;91.31
6134;BME280;3098;42.678;23.364;2022-08-18T00:56:30;94778.03;;;20.20;92.08
6134;BME280;3098;42.678;23.364;2022-08-18T00:59:03;94783.13;;;20.25;91.98
6134;BME280;3098;42.678;23.364;2022-08-18T01:01:33;94778.94;;;20.31;92.03
6134;BME280;3098;42.678;23.364;2022-08-18T01:04:07;94790.88;;;20.33;91.51
6134;BME280;3098;42.678;23.364;2022-08-18T01:06:42;94786.75;;;20.43;91.79
6134;BME280;3098;42.678;23.364;2022-08-18T01:09:11;94784.44;;;20.45;91.55
6134;BME280;3098;42.678;23.364;2022-08-18T01:11:38;94784.06;;;20.43;91.15
6134;BME280;3098;42.678;23.364;2022-08-18T01:14:07;94753.38;;;20.14;91.95
6134;BME280;3098;42.678;23.364;2022-08-18T01:16:35;94772.78;;;20.30;92.39
6134;BME280;3098;42.678;23.364;2022-08-18T01:19:22;94779.00;;;20.38;92.30
6134;BME280;3098;42.678;23.364;2022-08-18T01:22:14;94757.59;;;20.12;91.66
6134;BME280;3098;42.678;23.364;2022-08-18T01:24:44;94739.34;;;19.94;92.46
6134;BME280;3098;42.678;23.364;2022-08-18T01:27:29;94783.00;;;20.14;92.06
6134;BME280;3098;42.678;23.364;2022-08-18T01:30:03;94775.31;;;20.16;92.27
6134;BME280;3098;42.678;23.364;2022-08-18T01:32:30;94771.00;;;20.08;92.98
6134;BME280;3098;42.678;23.364;2022-08-18T01:34:58;94772.94;;;20.07;93.51
6134;BME280;3098;42.678;23.364;2022-08-18T01:37:25;94760.47;;;19.92;93.78
6134;BME280;3098;42.678;23.364;2022-08-18T01:39:54;94781.00;;;20.07;93.93
6134;BME280;3098;42.678;23.364;2022-08-18T01:42:21;94783.00;;;20.14;94.73
6134;BME280;3098;42.678;23.364;2022-08-18T01:44:48;94775.03;;;20.25;94.87
6134;BME280;3098;42.678;23.364;2022-08-18T01:47:17;94772.38;;;20.28;95.21
6134;BME280;3098;42.678;23.364;2022-08-18T01:49:45;94760.28;;;20.15;95.93
6134;BME280;3098;42.678;23.364;2022-08-18T01:52:15;94767.28;;;20.20;96.86
6134;BME280;3098;42.678;23.364;2022-08-18T01:54:43;94765.75;;;20.22;96.33
6134;BME280;3098;42.678;23.364;2022-08-18T01:57:13;94772.41;;;20.32;95.95
6134;BME280;3098;42.678;23.364;2022-08-18T01:59:41;94765.50;;;20.34;96.25
6134;BME280;3098;42.678;23.364;2022-08-18T02:02:14;94774.22;;;20.24;96.67
6134;BME280;3098;42.678;23.364;2022-08-18T02:04:42;94765.50;;;20.34;96.42
6134;BME280;3098;42.678;23.364;2022-08-18T02:07:11;94755.13;;;20.36;96.63
6134;BME280;3098;42.678;23.364;2022-08-18T02:09:40;94737.38;;;20.28;96.96
6134;BME280;3098;42.678;23.364;2022-08-18T02:12:08;94751.19;;;20.27;97.17
6134;BME280;3098;42.678;23.364;2022-08-18T02:14:37;94768.56;;;20.33;97.37
6134;BME280;3098;42.678;23.364;2022-08-18T02:17:06;94777.47;;;20.37;97.85
6134;BME280;3098;42.678;23.364;2022-08-18T02:19:34;94723.16;;;19.91;98.16
6134;BME280;3098;42.678;23.364;2022-08-18T02:22:03;94772.16;;;20.07;97.91
6134;BME280;3098;42.678;23.364;2022-08-18T02:24:31;94779.97;;;20.19;98.76
6134;BME280;3098;42.678;23.364;2022-08-18T02:26:58;94781.13;;;20.22;97.96
6134;BME280;3098;42.678;23.364;2022-08-18T02:29:25;94782.75;;;20.26;98.11
6134;BME280;3098;42.678;23.364;2022-08-18T02:31:54;94771.06;;;20.15;98.67
6134;BME280;3098;42.678;23.364;2022-08-18T02:34:21;94750.50;;;19.96;99.05
6134;BME280;3098;42.678;23.364;2022-08-18T02:36:48;94769.84;;;20.05;99.88
6134;BME280;3098;42.678;23.364;2022-08-18T02:39:16;94773.75;;;20.12;99.97
6134;BME280;3098;42.678;23.364;2022-08-18T02:41:43;94761.06;;;20.16;99.63
6134;BME280;3098;42.678;23.364;2022-08-18T02:44:11;94754.03;;;20.04;99.74
6134;BME280;3098;42.678;23.364;2022-08-18T02:46:38;94753.16;;;19.93;99.59
6134;BME280;3098;42.678;23.364;2022-08-18T02:49:07;94767.31;;;19.83;100.00
6134;BME280;3098;42.678;23.364;2022-08-18T02:51:34;94763.34;;;19.73;100.00
6134;BME280;3098;42.678;23.364;2022-08-18T02:54:02;94780.75;;;19.83;100.00
6134;BME280;3098;42.678;23.364;2022-08-18T02:56:34;94762.56;;;19.73;100.00
6134;BME280;3098;42.678;23.364;2022-08-18T02:59:06;94780.66;;;19.72;100.00
6134;BME280;3098;42.678;23.364;2022-08-18T03:01:35;94781.97;;;19.56;100.00
6134;BME280;3098;42.678;23.364;2022-08-18T03:04:04;94769.09;;;19.38;100.00
6134;BME280;3098;42.678;23.364;2022-08-18T03:06:35;94781.97;;;19.52;100.00
6134;BME280;3098;42.678;23.364;2022-08-18T03:09:04;94753.38;;;19.40;100.00
6134;BME280;3098;42.678;23.364;2022-08-18T03:11:31;94768.00;;;19.43;100.00
6134;BME280;3098;42.678;23.364;2022-08-18T03:13:59;94752.38;;;19.52;100.00
6134;BME280;3098;42.678;23.364;2022-08-18T03:16:27;94772.72;;;19.53;100.00
6134;BME280;3098;42.678;23.364;2022-08-18T03:18:55;94770.50;;;19.59;100.00
6134;BME280;3098;42.678;23.364;2022-08-18T03:21:25;94793.56;;;19.60;100.00
6134;BME280;3098;42.678;23.364;2022-08-18T03:23:55;94742.38;;;19.23;100.00
6134;BME280;3098;42.678;23.364;2022-08-18T03:26:23;94772.81;;;19.30;100.00
6134;BME280;3098;42.678;23.364;2022-08-18T03:28:53;94786.91;;;19.50;100.00
6134;BME280;3098;42.678;23.364;2022-08-18T03:31:22;94774.44;;;19.35;100.00
6134;BME280;3098;42.678;23.364;2022-08-18T03:33:50;94790.91;;;19.33;100.00
6134;BME280;3098;42.678;23.364;2022-08-18T03:36:20;94798.13;;;19.26;100.00
6134;BME280;3098;42.678;23.364;2022-08-18T03:38:49;94779.63;;;19.21;100.00
6134;BME280;3098;42.678;23.364;2022-08-18T03:41:20;94782.00;;;19.00;100.00
6134;BME280;3098;42.678;23.364;2022-08-18T03:43:48;94790.06;;;18.73;100.00
6134;BME280;3098;42.678;23.364;2022-08-18T03:46:17;94793.94;;;18.50;100.00
6134;BME280;3098;42.678;23.364;2022-08-18T03:48:45;94794.56;;;18.43;100.00
6134;BME280;3098;42.678;23.364;2022-08-18T03:51:17;94761.06;;;18.11;100.00
6134;BME280;3098;42.678;23.364;2022-08-18T03:53:47;94794.22;;;18.67;100.00
6134;BME280;3098;42.678;23.364;2022-08-18T03:56:16;94774.19;;;18.38;100.00
6134;BME280;3098;42.678;23.364;2022-08-18T03:58:47;94803.03;;;18.45;100.00
6134;BME280;3098;42.678;23.364;2022-08-18T04:01:16;94784.34;;;18.49;100.00
6134;BME280;3098;42.678;23.364;2022-08-18T04:03:45;94666.19;;;17.54;100.00
6134;BME280;3098;42.678;23.364;2022-08-18T04:06:14;94799.16;;;18.43;100.00
6134;BME280;3098;42.678;23.364;2022-08-18T04:08:41;94806.19;;;18.73;100.00
6134;BME280;3098;42.678;23.364;2022-08-18T04:11:09;94788.75;;;18.86;100.00
6134;BME280;3098;42.678;23.364;2022-08-18T04:13:38;94810.59;;;19.11;100.00
6134;BME280;3098;42.678;23.364;2022-08-18T04:16:08;94791.84;;;19.15;100.00
6134;BME280;3098;42.678;23.364;2022-08-18T04:18:36;94804.34;;;19.33;100.00
6134;BME280;3098;42.678;23.364;2022-08-18T04:21:05;94798.69;;;19.38;100.00
6134;BME280;3098;42.678;23.364;2022-08-18T04:23:32;94818.78;;;19.48;100.00
6134;BME280;3098;42.678;23.364;2022-08-18T04:26:01;94819.38;;;19.64;100.00
6134;BME280;3098;42.678;23.364;2022-08-18T04:28:30;94774.25;;;19.50;100.00
6134;BME280;3098;42.678;23.364;2022-08-18T04:30:57;94829.75;;;19.99;100.00
6134;BME280;3098;42.678;23.364;2022-08-18T04:33:27;94833.28;;;20.06;99.46
6134;BME280;3098;42.678;23.364;2022-08-18T04:35:54;94825.19;;;20.03;99.50
6134;BME280;3098;42.678;23.364;2022-08-18T04:38:22;94825.78;;;19.86;99.83
6134;BME280;3098;42.678;23.364;2022-08-18T04:40:49;94825.56;;;20.01;100.00
6134;BME280;3098;42.678;23.364;2022-08-18T04:43:17;94789.19;;;19.81;99.84
6134;BME280;3098;42.678;23.364;2022-08-18T04:45:44;94746.88;;;19.78;99.05
6134;BME280;3098;42.678;23.364;2022-08-18T04:48:12;94825.22;;;20.43;98.49
6134;BME280;3098;42.678;23.364;2022-08-18T04:50:42;94831.94;;;20.60;97.57
6134;BME280;3098;42.678;23.364;2022-08-18T04:53:09;94764.06;;;20.03;97.13
6134;BME280;3098;42.678;23.364;2022-08-18T04:55:55;94833.06;;;20.59;97.28
6134;BME280;3098;42.678;23.364;2022-08-18T04:58:23;94833.16;;;20.70;97.37
6134;BME280;3098;42.678;23.364;2022-08-18T05:00:56;94833.56;;;20.75;97.08
6134;BME280;3098;42.678;23.364;2022-08-18T05:03:23;94833.66;;;20.86;96.64
6134;BME280;3098;42.678;23.364;2022-08-18T05:05:53;94820.16;;;20.82;95.67
6134;BME280;3098;42.678;23.364;2022-08-18T05:08:20;94835.66;;;20.96;95.52
6134;BME280;3098;42.678;23.364;2022-08-18T05:10:52;94834.00;;;20.77;93.91
6134;BME280;3098;42.678;23.364;2022-08-18T05:13:19;94846.34;;;20.82;94.41
6134;BME280;3098;42.678;23.364;2022-08-18T05:15:52;94837.44;;;20.74;94.95
6134;BME280;3098;42.678;23.364;2022-08-18T05:18:19;94852.59;;;20.93;94.32
6134;BME280;3098;42.678;23.364;2022-08-18T05:20:49;94852.06;;;21.24;91.79
6134;BME280;3098;42.678;23.364;2022-08-18T05:23:19;94853.75;;;22.68;85.75
6134;BME280;3098;42.678;23.364;2022-08-18T05:25:46;94848.22;;;24.57;78.74
6134;BME280;3098;42.678;23.364;2022-08-18T05:28:14;94849.56;;;25.71;70.52
6134;BME280;3098;42.678;23.364;2022-08-18T05:30:43;94859.59;;;27.42;61.72
6134;BME280;3098;42.678;23.364;2022-08-18T05:33:10;94856.16;;;27.15;61.19
6134;BME280;3098;42.678;23.364;2022-08-18T05:35:52;94859.22;;;28.42;55.35
6134;BME280;3098;42.678;23.364;2022-08-18T05:38:36;94834.84;;;26.33;61.07
6134;BME280;3098;42.678;23.364;2022-08-18T05:41:08;94864.63;;;26.70;61.91
6134;BME280;3098;42.678;23.364;2022-08-18T05:43:38;94853.63;;;27.90;58.30
6134;BME280;3098;42.678;23.364;2022-08-18T05:46:08;94845.31;;;27.58;56.62
6134;BME280;3098;42.678;23.364;2022-08-18T05:48:35;94854.28;;;27.12;58.62
6134;BME280;3098;42.678;23.364;2022-08-18T05:51:09;94838.22;;;27.83;56.66
6134;BME280;3098;42.678;23.364;2022-08-18T05:53:39;94861.09;;;26.73;60.28
6134;BME280;3098;42.678;23.364;2022-08-18T05:56:28;94862.97;;;28.84;53.82
6134;BME280;3098;42.678;23.364;2022-08-18T05:59:17;94865.50;;;27.60;55.69
6134;BME280;3098;42.678;23.364;2022-08-18T06:01:51;94769.81;;;28.98;51.55
6134;BME280;3098;42.678;23.364;2022-08-18T06:04:28;94865.66;;;31.14;46.95
6134;BME280;3098;42.678;23.364;2022-08-18T06:07:02;94850.59;;;29.60;49.05
6134;BME280;3098;42.678;23.364;2022-08-18T06:09:37;94860.47;;;31.41;45.56
6134;BME280;3098;42.678;23.364;2022-08-18T06:12:10;94851.97;;;29.36;49.11
6134;BME280;3098;42.678;23.364;2022-08-18T06:14:39;94863.78;;;30.06;47.47
6134;BME280;3098;42.678;23.364;2022-08-18T06:17:21;94856.66;;;30.09;48.17
6134;BME280;3098;42.678;23.364;2022-08-18T06:19:59;94858.03;;;32.55;42.41
6134;BME280;3098;42.678;23.364;2022-08-18T06:22:36;94864.31;;;32.43;41.03
6134;BME280;3098;42.678;23.364;2022-08-18T06:25:13;94869.44;;;33.33;40.56
6134;BME280;3098;42.678;23.364;2022-08-18T06:27:49;94863.72;;;34.13;38.18
6134;BME280;3098;42.678;23.364;2022-08-18T06:30:23;94865.06;;;34.45;37.41
6134;BME280;3098;42.678;23.364;2022-08-18T06:33:11;94800.19;;;34.35;35.41
6134;BME280;3098;42.678;23.364;2022-08-18T06:35:45;94853.91;;;34.39;36.11
6134;BME280;3098;42.678;23.364;2022-08-18T06:38:29;94879.09;;;35.16;34.95
6134;BME280;3098;42.678;23.364;2022-08-18T06:41:32;94872.69;;;35.01;34.84
6134;BME280;3098;42.678;23.364;2022-08-18T06:44:03;94864.94;;;34.30;35.32
6134;BME280;3098;42.678;23.364;2022-08-18T06:46:37;94843.59;;;35.33;34.19
6134;BME280;3098;42.678;23.364;2022-08-18T06:49:09;94866.66;;;35.68;33.32
6134;BME280;3098;42.678;23.364;2022-08-18T06:51:38;94853.81;;;34.76;34.79
6134;BME280;3098;42.678;23.364;2022-08-18T06:54:06;94846.56;;;35.91;33.73
6134;BME280;3098;42.678;23.364;2022-08-18T06:56:49;94840.19;;;35.38;33.12
6134;BME280;3098;42.678;23.364;2022-08-18T06:59:21;94846.69;;;35.26;34.33
6134;BME280;3098;42.678;23.364;2022-08-18T07:01:52;94847.09;;;34.77;34.98
6134;BME280;3098;42.678;23.364;2022-08-18T07:04:41;94845.19;;;36.25;33.30
6134;BME280;3098;42.678;23.364;2022-08-18T07:07:17;94845.00;;;35.52;33.77
6134;BME280;3098;42.678;23.364;2022-08-18T07:09:46;94838.97;;;35.06;35.36
6134;BME280;3098;42.678;23.364;2022-08-18T07:12:21;94833.69;;;35.88;33.44
6134;BME280;3098;42.678;23.364;2022-08-18T07:14:51;94827.09;;;36.09;33.59
6134;BME280;3098;42.678;23.364;2022-08-18T07:17:21;94808.25;;;36.37;32.35
6134;BME280;3098;42.678;23.364;2022-08-18T07:19:58;94817.28;;;37.16;31.36
6134;BME280;3098;42.678;23.364;2022-08-18T07:22:27;94807.63;;;37.47;31.07
6134;BME280;3098;42.678;23.364;2022-08-18T07:24:55;94823.50;;;37.46;30.70
6134;BME280;3098;42.678;23.364;2022-08-18T07:30:28;94821.16;;;36.90;30.98
6134;BME280;3098;42.678;23.364;2022-08-18T07:33:00;94821.22;;;36.60;31.48
6134;BME280;3098;42.678;23.364;2022-08-18T07:35:35;94817.41;;;37.07;31.51
6134;BME280;3098;42.678;23.364;2022-08-18T07:38:11;94821.28;;;37.15;30.56
6134;BME280;3098;42.678;23.364;2022-08-18T07:40:47;94824.16;;;35.51;32.57
6134;BME280;3098;42.678;23.364;2022-08-18T07:43:21;94817.25;;;33.97;35.53
6134;BME280;3098;42.678;23.364;2022-08-18T07:45:56;94821.91;;;34.51;35.10
6134;BME280;3098;42.678;23.364;2022-08-18T07:48:31;94817.69;;;36.60;31.91
6134;BME280;3098;42.678;23.364;2022-08-18T07:51:05;94823.88;;;36.69;31.75
6134;BME280;3098;42.678;23.364;2022-08-18T07:53:46;94825.59;;;37.16;31.22
6134;BME280;3098;42.678;23.364;2022-08-18T07:56:37;94814.81;;;36.69;31.50
6134;BME280;3098;42.678;23.364;2022-08-18T07:59:11;94815.75;;;36.22;31.76
6134;BME280;3098;42.678;23.364;2022-08-18T08:01:48;94829.25;;;35.19;32.82
6134;BME280;3098;42.678;23.364;2022-08-18T08:04:33;94824.94;;;35.28;33.24
6134;BME280;3098;42.678;23.364;2022-08-18T08:07:08;94827.19;;;36.15;31.70
6134;BME280;3098;42.678;23.364;2022-08-18T08:09:44;94817.84;;;36.42;31.14
6134;BME280;3098;42.678;23.364;2022-08-18T08:12:22;94826.22;;;36.76;31.03
6134;BME280;3098;42.678;23.364;2022-08-18T08:14:57;94820.56;;;37.55;29.24
6134;BME280;3098;42.678;23.364;2022-08-18T08:17:33;94825.09;;;36.83;29.61
6134;BME280;3098;42.678;23.364;2022-08-18T08:20:13;94822.88;;;36.87;30.17
6134;BME280;3098;42.678;23.364;2022-08-18T08:22:50;94823.31;;;36.65;29.98
6134;BME280;3098;42.678;23.364;2022-08-18T08:25:23;94801.34;;;36.76;30.14
6134;BME280;3098;42.678;23.364;2022-08-18T08:28:02;94770.94;;;36.27;30.51
6134;BME280;3098;42.678;23.364;2022-08-18T08:30:38;94824.69;;;37.25;29.19
6134;BME280;3098;42.678;23.364;2022-08-18T08:33:18;94817.19;;;37.86;28.76
6134;BME280;3098;42.678;23.364;2022-08-18T08:35:53;94810.63;;;37.63;28.71
6134;BME280;3098;42.678;23.364;2022-08-18T08:38:25;94810.72;;;36.50;30.66
6134;BME280;3098;42.678;23.364;2022-08-18T08:40:59;94808.00;;;37.94;28.80
6134;BME280;3098;42.678;23.364;2022-08-18T08:43:31;94820.75;;;38.38;27.50
6134;BME280;3098;42.678;23.364;2022-08-18T08:46:05;94813.69;;;37.10;28.29
6134;BME280;3098;42.678;23.364;2022-08-18T08:48:41;94804.16;;;37.11;28.36
6134;BME280;3098;42.678;23.364;2022-08-18T08:51:27;94807.94;;;37.89;27.95
6134;BME280;3098;42.678;23.364;2022-08-18T08:53:59;94816.22;;;39.03;26.36
6134;BME280;3098;42.678;23.364;2022-08-18T08:56:33;94815.31;;;39.17;26.56
6134;BME280;3098;42.678;23.364;2022-08-18T08:59:04;94809.66;;;37.66;27.22
6134;BME280;3098;42.678;23.364;2022-08-18T09:01:36;94811.94;;;37.13;27.87
6134;BME280;3098;42.678;23.364;2022-08-18T09:04:17;94809.06;;;37.22;27.66
6134;BME280;3098;42.678;23.364;2022-08-18T09:06:54;94805.94;;;37.49;27.41
6134;BME280;3098;42.678;23.364;2022-08-18T09:09:47;94805.50;;;37.01;28.04
6134;BME280;3098;42.678;23.364;2022-08-18T09:12:26;94794.91;;;37.75;26.50
6134;BME280;3098;42.678;23.364;2022-08-18T09:15:13;94794.47;;;37.41;27.05
6134;BME280;3098;42.678;23.364;2022-08-18T09:18:03;94742.22;;;37.89;26.24
6134;BME280;3098;42.678;23.364;2022-08-18T09:20:52;94792.25;;;37.86;26.76
6134;BME280;3098;42.678;23.364;2022-08-18T09:23:24;94790.78;;;38.36;25.51
6134;BME280;3098;42.678;23.364;2022-08-18T09:25:53;94788.53;;;38.15;25.72
6134;BME280;3098;42.678;23.364;2022-08-18T09:28:22;94767.50;;;37.16;26.72
6134;BME280;3098;42.678;23.364;2022-08-18T09:31:16;94778.38;;;37.60;26.42
6134;BME280;3098;42.678;23.364;2022-08-18T09:33:56;94753.78;;;38.39;25.86
6134;BME280;3098;42.678;23.364;2022-08-18T09:36:40;94773.69;;;37.66;25.84
6134;BME280;3098;42.678;23.364;2022-08-18T09:39:20;94767.25;;;37.34;26.06
6134;BME280;3098;42.678;23.364;2022-08-18T09:42:10;94768.88;;;38.75;25.88
6134;BME280;3098;42.678;23.364;2022-08-18T09:45:00;94763.94;;;37.96;25.56
6134;BME280;3098;42.678;23.364;2022-08-18T09:47:57;94765.00;;;37.38;25.99
6134;BME280;3098;42.678;23.364;2022-08-18T09:50:34;94767.84;;;37.64;26.13
6134;BME280;3098;42.678;23.364;2022-08-18T09:53:32;94765.94;;;38.22;25.79
6134;BME280;3098;42.678;23.364;2022-08-18T09:56:01;94752.34;;;38.24;26.11
6134;BME280;3098;42.678;23.364;2022-08-18T09:58:52;94752.63;;;38.26;26.02
6134;BME280;3098;42.678;23.364;2022-08-18T10:01:40;94759.41;;;38.50;25.06
6134;BME280;3098;42.678;23.364;2022-08-18T10:04:28;94752.16;;;35.49;28.51
6134;BME280;3098;42.678;23.364;2022-08-18T10:07:30;94745.59;;;35.22;29.27
6134;BME280;3098;42.678;23.364;2022-08-18T10:10:12;94748.53;;;36.25;27.90
6134;BME280;3098;42.678;23.364;2022-08-18T10:12:55;94742.72;;;36.52;28.07
6134;BME280;3098;42.678;23.364;2022-08-18T10:15:55;94717.59;;;35.77;27.42
6134;BME280;3098;42.678;23.364;2022-08-18T10:18:50;94732.34;;;35.36;28.66
6134;BME280;3098;42.678;23.364;2022-08-18T10:21:21;94731.59;;;36.17;27.77
6134;BME280;3098;42.678;23.364;2022-08-18T10:23:55;94739.00;;;37.71;25.80
6134;BME280;3098;42.678;23.364;2022-08-18T10:29:53;94733.50;;;37.76;25.78
6134;BME280;3098;42.678;23.364;2022-08-18T10:32:42;94725.97;;;37.77;26.10
6134;BME280;3098;42.678;23.364;2022-08-18T10:38:23;94712.00;;;37.00;25.78
6134;BME280;3098;42.678;23.364;2022-08-18T10:40:59;94674.97;;;33.52;29.40
6134;BME280;3098;42.678;23.364;2022-08-18T10:43:34;94713.53;;;34.87;28.67
6134;BME280;3098;42.678;23.364;2022-08-18T10:46:04;94715.63;;;35.39;28.62
6134;BME280;3098;42.678;23.364;2022-08-18T10:48:40;94712.28;;;35.35;27.94
6134;BME280;3098;42.678;23.364;2022-08-18T10:51:14;94713.16;;;35.41;28.23
6134;BME280;3098;42.678;23.364;2022-08-18T10:53:47;94704.41;;;36.60;26.81
6134;BME280;3098;42.678;23.364;2022-08-18T10:56:27;94716.75;;;37.19;25.71
6134;BME280;3098;42.678;23.364;2022-08-18T10:59:14;94709.94;;;37.15;25.45
6134;BME280;3098;42.678;23.364;2022-08-18T11:02:00;94696.19;;;35.19;28.32
6134;BME280;3098;42.678;23.364;2022-08-18T11:04:34;94686.38;;;35.18;27.70
6134;BME280;3098;42.678;23.364;2022-08-18T11:07:05;94676.50;;;35.64;26.99
6134;BME280;3098;42.678;23.364;2022-08-18T11:09:35;94670.28;;;36.13;25.92
6134;BME280;3098;42.678;23.364;2022-08-18T11:12:04;94685.16;;;37.26;24.95
6134;BME280;3098;42.678;23.364;2022-08-18T11:15:06;94685.31;;;35.15;26.59
6134;BME280;3098;42.678;23.364;2022-08-18T11:17:50;94687.72;;;36.89;24.97
6134;BME280;3098;42.678;23.364;2022-08-18T11:20:22;94639.88;;;36.83;24.65
6134;BME280;3098;42.678;23.364;2022-08-18T11:22:55;94675.22;;;36.59;24.43
6134;BME280;3098;42.678;23.364;2022-08-18T11:25:26;94675.97;;;37.14;24.42
6134;BME280;3098;42.678;23.364;2022-08-18T11:27:54;94675.72;;;35.79;25.75
6134;BME280;3098;42.678;23.364;2022-08-18T11:30:30;94682.16;;;37.75;23.75
6134;BME280;3098;42.678;23.364;2022-08-18T11:32:59;94681.38;;;37.03;24.37
6134;BME280;3098;42.678;23.364;2022-08-18T11:35:30;94689.59;;;36.28;25.88
6134;BME280;3098;42.678;23.364;2022-08-18T11:37:59;94686.09;;;35.16;27.16
6134;BME280;3098;42.678;23.364;2022-08-18T11:40:33;94689.03;;;34.56;27.86
6134;BME280;3098;42.678;23.364;2022-08-18T11:43:05;94671.75;;;35.03;27.47
6134;BME280;3098;42.678;23.364;2022-08-18T11:45:50;94666.69;;;34.87;27.46
6134;BME280;3098;42.678;23.364;2022-08-18T11:48:32;94678.22;;;33.32;29.12
6134;BME280;3098;42.678;23.364;2022-08-18T11:51:08;94649.38;;;33.97;28.96
6134;BME280;3098;42.678;23.364;2022-08-18T11:53:49;94659.66;;;35.09;27.68
6134;BME280;3098;42.678;23.364;2022-08-18T11:56:23;94656.06;;;35.33;27.22
6134;BME280;3098;42.678;23.364;2022-08-18T11:58:53;94653.84;;;34.84;28.03
6134;BME280;3098;42.678;23.364;2022-08-18T12:01:39;94653.19;;;33.99;29.21
6134;BME280;3098;42.678;23.364;2022-08-18T12:04:22;94655.94;;;33.39;29.33
6134;BME280;3098;42.678;23.364;2022-08-18T12:06:58;94658.34;;;33.55;29.56
6134;BME280;3098;42.678;23.364;2022-08-18T12:09:33;94650.88;;;33.47;29.61
6134;BME280;3098;42.678;23.364;2022-08-18T12:12:04;94650.72;;;33.50;29.04
6134;BME280;3098;42.678;23.364;2022-08-18T12:14:49;94643.41;;;32.75;29.52
6134;BME280;3098;42.678;23.364;2022-08-18T12:17:17;94643.06;;;32.06;31.05
6134;BME280;3098;42.678;23.364;2022-08-18T12:19:46;94641.44;;;32.17;31.28
6134;BME280;3098;42.678;23.364;2022-08-18T12:22:15;94620.72;;;32.25;31.78
6134;BME280;3098;42.678;23.364;2022-08-18T12:24:43;94639.97;;;32.43;30.26
6134;BME280;3098;42.678;23.364;2022-08-18T12:27:12;94644.50;;;32.28;30.32
6134;BME280;3098;42.678;23.364;2022-08-18T12:29:41;94573.06;;;31.92;30.31
6134;BME280;3098;42.678;23.364;2022-08-18T12:32:11;94643.41;;;32.66;29.97
6134;BME280;3098;42.678;23.364;2022-08-18T12:34:39;94635.19;;;33.11;29.79
6134;BME280;3098;42.678;23.364;2022-08-18T12:37:09;94633.50;;;32.86;29.51
6134;BME280;3098;42.678;23.364;2022-08-18T12:39:36;94633.50;;;33.14;30.20
6134;BME280;3098;42.678;23.364;2022-08-18T12:42:03;94618.81;;;32.89;30.07
6134;BME280;3098;42.678;23.364;2022-08-18T12:44:31;94620.22;;;33.03;29.86
6134;BME280;3098;42.678;23.364;2022-08-18T12:47:00;94636.91;;;32.41;30.65
6134;BME280;3098;42.678;23.364;2022-08-18T12:49:27;94609.06;;;32.79;30.28
6134;BME280;3098;42.678;23.364;2022-08-18T12:51:55;94638.81;;;33.44;30.38
6134;BME280;3098;42.678;23.364;2022-08-18T12:54:24;94639.22;;;33.70;29.58
6134;BME280;3098;42.678;23.364;2022-08-18T12:56:54;94614.16;;;33.77;29.60
6134;BME280;3098;42.678;23.364;2022-08-18T12:59:22;94626.63;;;34.29;27.97
6134;BME280;3098;42.678;23.364;2022-08-18T13:01:49;94629.56;;;34.26;28.71
6134;BME280;3098;42.678;23.364;2022-08-18T13:04:16;94625.19;;;34.10;29.02
6134;BME280;3098;42.678;23.364;2022-08-18T13:06:46;94601.72;;;33.91;29.50
6134;BME280;3098;42.678;23.364;2022-08-18T13:09:14;94620.91;;;34.09;28.63
6134;BME280;3098;42.678;23.364;2022-08-18T13:11:43;94597.94;;;34.12;28.67
6134;BME280;3098;42.678;23.364;2022-08-18T13:14:10;94609.53;;;34.25;28.11
6134;BME280;3098;42.678;23.364;2022-08-18T13:16:40;94596.88;;;33.77;28.17
6134;BME280;3098;42.678;23.364;2022-08-18T13:19:09;94608.69;;;33.59;28.50
6134;BME280;3098;42.678;23.364;2022-08-18T13:21:37;94609.16;;;34.08;28.66
6134;BME280;3098;42.678;23.364;2022-08-18T13:24:05;94609.94;;;34.00;28.67
6134;BME280;3098;42.678;23.364;2022-08-18T13:26:35;94601.19;;;33.69;28.39
6134;BME280;3098;42.678;23.364;2022-08-18T13:29:04;94591.13;;;33.57;28.65
6134;BME280;3098;42.678;23.364;2022-08-18T13:31:32;94574.34;;;33.45;28.90
6134;BME280;3098;42.678;23.364;2022-08-18T13:33:59;94603.56;;;33.85;28.74
6134;BME280;3098;42.678;23.364;2022-08-18T13:36:28;94612.34;;;34.07;28.47
6134;BME280;3098;42.678;23.364;2022-08-18T13:39:09;94599.13;;;34.20;27.56
6134;BME280;3098;42.678;23.364;2022-08-18T13:41:36;94603.53;;;33.94;28.50
6134;BME280;3098;42.678;23.364;2022-08-18T13:44:08;94596.47;;;34.02;29.01
6134;BME280;3098;42.678;23.364;2022-08-18T13:46:38;94592.28;;;34.16;27.79
6134;BME280;3098;42.678;23.364;2022-08-18T13:49:10;94595.31;;;33.85;28.73
6134;BME280;3098;42.678;23.364;2022-08-18T13:51:38;94590.34;;;33.65;28.74